Time;durP1;ratioP1;P1;durP2;ratioP2;P2;SDS_P1;SDS_P2;PMS_P1;PMS_P2;Temp;Humidity;BMP_temperature;BMP_pressure;BME280_temperature;BME280_humidity;BME280_pressure;Samples;Min_cycle;Max_cycle;Signal;HPM_P1;HPM_P2
2023/08/23 00:01:35;;;;;;;0.00;0.00;;;19.40;99.90;;;;;;5098369;28;20028;-74
2023/08/23 00:04:00;;;;;;;0.10;0.10;;;19.70;99.90;;;;;;5095407;28;20449;-73
2023/08/23 00:06:26;;;;;;;0.00;0.00;;;19.60;99.90;;;;;;5095787;28;20070;-73
2023/08/23 00:08:52;;;;;;;0.00;0.00;;;19.50;99.90;;;;;;5099843;28;20024;-72
2023/08/23 00:11:18;;;;;;;0.17;0.17;;;19.70;99.90;;;;;;5099208;28;20032;-77
2023/08/23 00:13:45;;;;;;;0.00;0.00;;;19.90;99.90;;;;;;5103009;28;20027;-72
2023/08/23 00:16:11;;;;;;;0.00;0.00;;;19.80;99.90;;;;;;5101876;28;20046;-72
2023/08/23 00:18:36;;;;;;;0.00;0.00;;;19.50;99.90;;;;;;5107990;28;20059;-73
2023/08/23 00:21:02;;;;;;;0.10;0.10;;;19.00;99.90;;;;;;5105494;28;20044;-73
2023/08/23 00:23:28;;;;;;;0.10;0.10;;;18.90;99.90;;;;;;5110161;27;20059;-73
2023/08/23 00:25:54;;;;;;;0.00;0.00;;;18.80;99.90;;;;;;5110188;28;20107;-73
2023/08/23 00:28:20;;;;;;;0.00;0.00;;;18.70;99.90;;;;;;5105745;28;20108;-72
2023/08/23 00:30:53;;;;;;;0.00;0.00;;;19.00;99.90;;;;;;5097094;28;20447;-72
2023/08/23 00:33:20;;;;;;;0.00;0.00;;;19.20;99.90;;;;;;5095067;28;20036;-72
2023/08/23 00:35:47;;;;;;;0.00;0.00;;;19.30;99.90;;;;;;5097390;28;20081;-73
2023/08/23 00:38:13;;;;;;;0.00;0.00;;;19.30;99.90;;;;;;5099653;28;20024;-72
2023/08/23 00:40:39;;;;;;;0.20;0.20;;;19.30;99.90;;;;;;5095713;28;20016;-72
2023/08/23 00:43:07;;;;;;;1.10;1.00;;;18.90;99.90;;;;;;5106117;28;20020;-76
2023/08/23 00:45:35;;;;;;;1.00;1.00;;;18.80;99.90;;;;;;5100890;28;20456;-73
2023/08/23 00:48:02;;;;;;;0.00;0.00;;;18.70;99.90;;;;;;5106920;28;20049;-73
2023/08/23 00:50:28;;;;;;;0.00;0.00;;;18.60;99.90;;;;;;5112603;28;20024;-73
2023/08/23 00:52:54;;;;;;;0.00;0.00;;;18.80;99.90;;;;;;5113296;28;20031;-72
2023/08/23 00:55:22;;;;;;;0.00;0.00;;;18.90;99.90;;;;;;5109024;28;20433;-72
2023/08/23 00:57:48;;;;;;;0.00;0.00;;;19.00;99.90;;;;;;5111472;28;20019;-72
2023/08/23 01:00:15;;;;;;;0.00;0.00;;;19.20;99.90;;;;;;5111204;28;20035;-72
2023/08/23 01:02:41;;;;;;;0.00;0.00;;;19.30;99.90;;;;;;5094264;28;20159;-73
2023/08/23 01:05:07;;;;;;;0.13;0.13;;;19.20;99.90;;;;;;5112342;28;20102;-72
2023/08/23 01:07:42;;;;;;;0.00;0.00;;;18.90;99.90;;;;;;5113360;28;20020;-72
2023/08/23 01:10:26;;;;;;;0.00;0.00;;;18.60;99.90;;;;;;5087403;28;20018;-72
2023/08/23 01:12:58;;;;;;;0.00;0.00;;;18.80;99.90;;;;;;5092213;28;20120;-72
2023/08/23 01:15:27;;;;;;;0.00;0.00;;;18.80;99.90;;;;;;5095845;28;20019;-72
2023/08/23 01:17:53;;;;;;;0.00;0.00;;;18.70;99.90;;;;;;5088739;28;20442;-74
2023/08/23 01:20:20;;;;;;;0.00;0.00;;;18.60;99.90;;;;;;5113444;28;20095;-72
2023/08/23 01:22:53;;;;;;;0.00;0.00;;;18.90;99.90;;;;;;5111973;28;20499;-73
2023/08/23 01:25:18;;;;;;;0.00;0.00;;;18.80;99.90;;;;;;5101138;28;20099;-73
2023/08/23 01:27:46;;;;;;;0.00;0.00;;;18.80;99.90;;;;;;5096873;28;20020;-72
2023/08/23 01:30:14;;;;;;;0.00;0.00;;;18.80;99.90;;;;;;5098008;28;20380;-72
2023/08/23 01:33:00;;;;;;;0.22;0.22;;;18.80;99.90;;;;;;5096512;28;20036;-74
2023/08/23 01:35:41;;;;;;;0.00;0.00;;;18.70;99.90;;;;;;5084133;28;20024;-72
2023/08/23 01:38:08;;;;;;;0.10;0.10;;;18.50;99.90;;;;;;5099949;28;20031;-73
2023/08/23 01:40:35;;;;;;;0.00;0.00;;;18.40;99.90;;;;;;5097969;28;20023;-72
2023/08/23 01:43:01;;;;;;;0.03;0.03;;;18.40;99.90;;;;;;5103535;28;20027;-72
2023/08/23 01:45:26;;;;;;;0.00;0.00;;;18.40;99.90;;;;;;5101103;28;20472;-73
2023/08/23 01:47:52;;;;;;;0.00;0.00;;;18.40;99.90;;;;;;5106529;28;20023;-72
2023/08/23 01:50:18;;;;;;;0.00;0.00;;;18.60;99.90;;;;;;5105216;28;20016;-72
2023/08/23 01:52:44;;;;;;;0.00;0.00;;;18.60;99.90;;;;;;5109280;28;20114;-73
2023/08/23 01:55:09;;;;;;;0.00;0.00;;;18.70;99.90;;;;;;5109169;28;20043;-72
2023/08/23 01:57:36;;;;;;;0.17;0.17;;;18.60;99.90;;;;;;5084517;28;20031;-72
2023/08/23 02:00:03;;;;;;;0.15;0.15;;;18.70;99.90;;;;;;5092974;28;20077;-73
2023/08/23 02:02:40;;;;;;;0.05;0.05;;;18.40;99.90;;;;;;5094082;28;20032;-72
2023/08/23 02:05:06;;;;;;;0.00;0.00;;;18.30;99.90;;;;;;5093640;28;20020;-73
2023/08/23 02:07:33;;;;;;;0.10;0.10;;;18.40;99.90;;;;;;5097492;28;20024;-73
2023/08/23 02:09:59;;;;;;;0.00;0.00;;;18.30;99.90;;;;;;5104720;28;20027;-72
2023/08/23 02:12:24;;;;;;;0.00;0.00;;;18.40;99.90;;;;;;5112025;28;20395;-72
2023/08/23 02:14:50;;;;;;;0.00;0.00;;;18.40;99.90;;;;;;5092293;28;20383;-72
2023/08/23 02:17:16;;;;;;;0.00;0.00;;;18.40;99.90;;;;;;5094791;28;20020;-73
2023/08/23 02:19:41;;;;;;;0.00;0.00;;;18.40;99.90;;;;;;5106580;28;20547;-72
2023/08/23 02:22:07;;;;;;;0.00;0.00;;;18.40;99.90;;;;;;5095406;28;20430;-72
2023/08/23 02:24:33;;;;;;;0.00;0.00;;;18.50;99.90;;;;;;5098179;28;20015;-72
2023/08/23 02:26:59;;;;;;;0.00;0.00;;;18.20;99.90;;;;;;5110167;28;20030;-74
2023/08/23 02:29:25;;;;;;;0.00;0.00;;;18.10;99.90;;;;;;5101212;28;20453;-74
2023/08/23 02:31:50;;;;;;;0.00;0.00;;;18.10;99.90;;;;;;5094518;28;20067;-74
2023/08/23 02:34:16;;;;;;;0.10;0.10;;;18.30;99.90;;;;;;5098711;28;20017;-73
2023/08/23 02:36:42;;;;;;;0.10;0.10;;;18.20;99.90;;;;;;5108320;28;20024;-72
2023/08/23 02:39:09;;;;;;;0.10;0.10;;;18.20;99.90;;;;;;5094680;28;20565;-73
2023/08/23 02:41:34;;;;;;;0.00;0.00;;;18.30;99.90;;;;;;5098195;28;20470;-73
2023/08/23 02:44:00;;;;;;;0.00;0.00;;;18.20;99.90;;;;;;5103309;28;20035;-72
2023/08/23 02:46:26;;;;;;;0.00;0.00;;;18.20;99.90;;;;;;5104682;28;20031;-78
2023/08/23 02:48:52;;;;;;;0.00;0.00;;;18.30;99.90;;;;;;5105660;28;20028;-73
2023/08/23 02:51:17;;;;;;;0.10;0.10;;;18.30;99.90;;;;;;5093277;28;20020;-72
2023/08/23 02:53:43;;;;;;;0.03;0.03;;;18.10;99.90;;;;;;5098453;28;20020;-73
2023/08/23 02:56:09;;;;;;;0.10;0.10;;;18.00;99.90;;;;;;5096986;28;20483;-73
2023/08/23 02:58:35;;;;;;;0.00;0.00;;;18.00;99.90;;;;;;5090774;28;20937;-75
2023/08/23 03:01:02;;;;;;;0.00;0.00;;;18.00;99.90;;;;;;5095210;28;20043;-73
2023/08/23 03:03:29;;;;;;;0.10;0.10;;;18.10;99.90;;;;;;5095826;28;20736;-73
2023/08/23 03:05:56;;;;;;;0.03;0.03;;;18.00;99.90;;;;;;5097431;28;20055;-73
2023/08/23 03:08:23;;;;;;;0.10;0.10;;;17.80;99.90;;;;;;5091637;28;20051;-73
2023/08/23 03:10:49;;;;;;;0.00;0.00;;;17.80;99.90;;;;;;5092378;28;20028;-73
2023/08/23 03:13:15;;;;;;;0.00;0.00;;;17.80;99.90;;;;;;5112859;28;20455;-72
2023/08/23 03:15:41;;;;;;;0.00;0.00;;;18.00;99.90;;;;;;5096784;28;20080;-72
2023/08/23 03:18:08;;;;;;;0.00;0.00;;;18.00;99.90;;;;;;5100769;28;20027;-73
2023/08/23 03:20:34;;;;;;;0.00;0.00;;;17.70;99.90;;;;;;5100519;28;20024;-73
2023/08/23 03:23:01;;;;;;;0.00;0.00;;;17.50;99.90;;;;;;5094143;28;20026;-72
2023/08/23 03:25:27;;;;;;;0.43;0.43;;;17.20;99.90;;;;;;5096264;28;20043;-72
2023/08/23 03:27:54;;;;;;;0.00;0.00;;;17.20;99.90;;;;;;5108563;28;20447;-73
2023/08/23 03:30:20;;;;;;;0.10;0.10;;;17.30;99.90;;;;;;5111054;28;20114;-72
2023/08/23 03:32:47;;;;;;;0.00;0.00;;;17.40;99.90;;;;;;5096084;28;20098;-72
2023/08/23 03:35:13;;;;;;;0.00;0.00;;;17.60;99.90;;;;;;5092990;28;20019;-73
2023/08/23 03:37:40;;;;;;;1.90;1.75;;;17.60;99.90;;;;;;5080658;28;20038;-73
2023/08/23 03:40:06;;;;;;;0.08;0.08;;;17.70;99.90;;;;;;5095492;28;20099;-73
2023/08/23 03:42:32;;;;;;;0.00;0.00;;;17.80;99.90;;;;;;5100562;28;20070;-73
2023/08/23 03:44:58;;;;;;;0.03;0.03;;;17.70;99.90;;;;;;5099597;28;20488;-73
2023/08/23 03:47:23;;;;;;;0.00;0.00;;;17.20;99.90;;;;;;5103334;28;20062;-73
2023/08/23 03:49:49;;;;;;;0.00;0.00;;;17.00;99.90;;;;;;5100958;28;20023;-73
2023/08/23 03:52:15;;;;;;;0.03;0.03;;;16.80;99.90;;;;;;5106219;28;20055;-76
2023/08/23 03:54:41;;;;;;;0.38;0.38;;;17.10;99.90;;;;;;5104859;28;20490;-73
2023/08/23 03:57:07;;;;;;;0.00;0.00;;;16.90;99.90;;;;;;5109759;28;20028;-73
2023/08/23 03:59:33;;;;;;;0.00;0.00;;;17.20;99.90;;;;;;5091480;28;20107;-73
2023/08/23 04:01:59;;;;;;;0.00;0.00;;;17.10;99.90;;;;;;5091055;28;20384;-73
2023/08/23 04:04:25;;;;;;;0.10;0.10;;;17.30;99.90;;;;;;5094592;28;20452;-73
2023/08/23 04:06:51;;;;;;;0.00;0.00;;;17.30;99.90;;;;;;5100444;28;20109;-74
2023/08/23 04:09:17;;;;;;;0.00;0.00;;;17.30;99.90;;;;;;5103120;28;20063;-79
2023/08/23 04:11:43;;;;;;;0.00;0.00;;;17.40;99.90;;;;;;5112336;28;20057;-73
2023/08/23 04:14:09;;;;;;;0.00;0.00;;;17.60;99.90;;;;;;5097524;28;20123;-73
2023/08/23 04:16:35;;;;;;;0.05;0.05;;;17.50;99.90;;;;;;5110218;28;20031;-72
2023/08/23 04:19:01;;;;;;;0.00;0.00;;;17.30;99.90;;;;;;5093474;28;20027;-73
2023/08/23 04:21:27;;;;;;;0.00;0.00;;;17.20;99.90;;;;;;5096847;28;20078;-72
2023/08/23 04:23:54;;;;;;;0.03;0.03;;;17.00;99.90;;;;;;5099198;28;20016;-73
2023/08/23 04:26:20;;;;;;;0.00;0.00;;;17.20;99.90;;;;;;5099571;28;20034;-73
2023/08/23 04:28:47;;;;;;;0.00;0.00;;;17.30;99.90;;;;;;5102018;28;20486;-72
2023/08/23 04:31:13;;;;;;;0.00;0.00;;;17.00;99.90;;;;;;5104971;28;20031;-73
2023/08/23 04:33:46;;;;;;;0.00;0.00;;;16.90;99.90;;;;;;5106117;28;20044;-73
2023/08/23 04:36:12;;;;;;;0.05;0.05;;;17.10;99.90;;;;;;5107470;28;20115;-72
2023/08/23 04:38:38;;;;;;;0.00;0.00;;;17.20;99.90;;;;;;5109095;28;20050;-73
2023/08/23 04:41:04;;;;;;;0.55;0.55;;;17.30;99.90;;;;;;5111538;28;20027;-72
2023/08/23 04:43:32;;;;;;;0.00;0.00;;;17.30;99.90;;;;;;5111601;28;20023;-73
2023/08/23 04:46:01;;;;;;;0.00;0.00;;;17.10;99.90;;;;;;5097381;28;20030;-73
2023/08/23 04:48:27;;;;;;;0.10;0.10;;;17.00;99.90;;;;;;5096689;28;20024;-73
2023/08/23 04:50:57;;;;;;;0.10;0.10;;;17.00;99.90;;;;;;5096357;28;20020;-72
2023/08/23 04:53:24;;;;;;;0.00;0.00;;;17.00;99.90;;;;;;5096823;28;20028;-73
2023/08/23 04:55:50;;;;;;;0.20;0.20;;;17.10;99.90;;;;;;5099598;28;20020;-74
2023/08/23 04:58:17;;;;;;;3.83;0.75;;;16.90;99.90;;;;;;5104642;28;20115;-73
2023/08/23 05:00:44;;;;;;;0.10;0.10;;;16.50;99.90;;;;;;5102625;28;20486;-73
2023/08/23 05:03:10;;;;;;;0.00;0.00;;;16.30;99.90;;;;;;5104002;28;20430;-72
2023/08/23 05:05:36;;;;;;;0.00;0.00;;;16.40;99.90;;;;;;5108928;28;20037;-72
2023/08/23 05:08:03;;;;;;;0.00;0.00;;;16.60;99.90;;;;;;5110374;28;20016;-73
2023/08/23 05:10:29;;;;;;;0.00;0.00;;;16.90;99.90;;;;;;5108680;28;20069;-73
2023/08/23 05:12:58;;;;;;;0.00;0.00;;;17.00;99.90;;;;;;5113129;28;20032;-72
2023/08/23 05:15:24;;;;;;;0.10;0.10;;;17.30;99.90;;;;;;5109663;28;20035;-72
2023/08/23 05:17:52;;;;;;;0.00;0.00;;;17.40;99.90;;;;;;5112235;28;20051;-73
2023/08/23 05:20:18;;;;;;;0.00;0.00;;;17.40;99.90;;;;;;5111077;28;20111;-72
2023/08/23 05:22:43;;;;;;;0.08;0.08;;;17.50;99.90;;;;;;5111701;28;20154;-74
2023/08/23 05:25:09;;;;;;;0.00;0.00;;;17.50;99.90;;;;;;5112018;28;20602;-74
2023/08/23 05:27:35;;;;;;;0.10;0.10;;;17.50;99.90;;;;;;5094393;28;20024;-73
2023/08/23 05:30:03;;;;;;;0.10;0.10;;;17.50;99.90;;;;;;5112527;28;20467;-75
2023/08/23 05:32:30;;;;;;;0.00;0.00;;;17.80;99.90;;;;;;5110196;28;20032;-73
2023/08/23 05:34:56;;;;;;;0.10;0.10;;;17.90;99.90;;;;;;5108061;28;20015;-72
2023/08/23 05:37:22;;;;;;;0.00;0.00;;;17.90;99.90;;;;;;5097878;28;20089;-72
2023/08/23 05:39:48;;;;;;;0.43;0.43;;;18.10;99.90;;;;;;5101990;28;20016;-72
2023/08/23 05:42:14;;;;;;;1.25;0.68;;;18.20;99.90;;;;;;5100888;28;20032;-72
2023/08/23 05:44:39;;;;;;;0.20;0.20;;;17.60;99.90;;;;;;5106804;28;20677;-72
2023/08/23 05:47:05;;;;;;;0.00;0.00;;;17.40;99.90;;;;;;5104263;28;20371;-72
2023/08/23 05:49:31;;;;;;;0.00;0.00;;;17.60;99.90;;;;;;5098667;28;20034;-73
2023/08/23 05:51:57;;;;;;;0.80;0.80;;;17.60;99.90;;;;;;5103113;28;20089;-72
2023/08/23 05:54:23;;;;;;;0.10;0.10;;;17.80;99.90;;;;;;5110596;28;20421;-72
2023/08/23 05:56:49;;;;;;;0.25;0.25;;;18.00;99.90;;;;;;5109171;28;20043;-72
2023/08/23 05:59:15;;;;;;;0.57;0.40;;;18.20;99.90;;;;;;5101831;28;20016;-72
2023/08/23 06:01:41;;;;;;;0.05;0.05;;;18.20;99.90;;;;;;5107905;28;20026;-72
2023/08/23 06:04:07;;;;;;;0.05;0.05;;;18.20;99.90;;;;;;5100176;28;20085;-72
2023/08/23 06:06:33;;;;;;;0.10;0.10;;;18.10;99.90;;;;;;5094255;28;20036;-72
2023/08/23 06:09:00;;;;;;;3.92;2.35;;;17.80;99.90;;;;;;5095820;28;20020;-72
2023/08/23 06:11:26;;;;;;;1.25;1.15;;;17.70;99.90;;;;;;5098013;28;20028;-74
2023/08/23 06:13:52;;;;;;;2.88;1.65;;;17.80;99.90;;;;;;5081235;28;20031;-72
2023/08/23 06:16:18;;;;;;;0.60;0.60;;;17.80;99.90;;;;;;5103072;28;20499;-72
2023/08/23 06:18:43;;;;;;;0.20;0.20;;;17.90;99.90;;;;;;5111292;28;20499;-72
2023/08/23 06:21:09;;;;;;;0.00;0.00;;;18.00;99.90;;;;;;5108345;28;20015;-71
2023/08/23 06:23:41;;;;;;;0.00;0.00;;;18.10;99.90;;;;;;5112751;28;20038;-72
2023/08/23 06:26:08;;;;;;;2.65;1.40;;;18.30;99.90;;;;;;5098316;28;20055;-72
2023/08/23 06:28:34;;;;;;;1.35;0.90;;;18.50;99.90;;;;;;5093270;28;20529;-72
2023/08/23 06:31:00;;;;;;;0.43;0.40;;;18.40;99.90;;;;;;5108033;28;20099;-72
2023/08/23 06:33:25;;;;;;;0.00;0.00;;;18.40;99.90;;;;;;5103131;28;20392;-71
2023/08/23 06:35:51;;;;;;;1.10;1.08;;;18.30;99.90;;;;;;5104681;28;20067;-71
2023/08/23 06:38:17;;;;;;;0.08;0.08;;;18.40;99.90;;;;;;5099825;28;20028;-72
2023/08/23 06:40:43;;;;;;;1.95;1.70;;;18.50;99.90;;;;;;5105419;28;20433;-71
2023/08/23 06:43:17;;;;;;;0.70;0.70;;;18.70;99.90;;;;;;5106542;28;20077;-72
2023/08/23 06:45:43;;;;;;;13.50;4.03;;;18.70;99.90;;;;;;5108269;28;20107;-72
2023/08/23 06:48:09;;;;;;;2.15;1.58;;;18.70;99.90;;;;;;5104654;28;20106;-71
2023/08/23 06:50:37;;;;;;;0.40;0.40;;;18.70;99.90;;;;;;5111608;28;20035;-72
2023/08/23 06:53:03;;;;;;;6.35;1.85;;;18.90;99.90;;;;;;5111439;28;20115;-72
2023/08/23 06:55:29;;;;;;;1.75;1.65;;;19.00;99.90;;;;;;5104082;28;20416;-72
2023/08/23 06:57:55;;;;;;;2.95;1.77;;;19.00;99.90;;;;;;5104021;28;20030;-73
2023/08/23 07:00:21;;;;;;;0.20;0.20;;;18.80;99.90;;;;;;5097011;28;20456;-72
2023/08/23 07:02:48;;;;;;;1.13;0.95;;;18.70;99.90;;;;;;5098596;28;20043;-72
2023/08/23 07:05:14;;;;;;;8.25;3.00;;;18.90;99.90;;;;;;5106120;28;20384;-72
2023/08/23 07:07:39;;;;;;;0.52;0.52;;;18.90;99.90;;;;;;5098937;28;20035;-72
2023/08/23 07:10:06;;;;;;;0.00;0.00;;;19.10;99.90;;;;;;5104316;28;20057;-72
2023/08/23 07:12:32;;;;;;;0.00;0.00;;;19.40;99.90;;;;;;5101647;28;20089;-73
2023/08/23 07:14:57;;;;;;;0.30;0.30;;;19.80;99.90;;;;;;5105939;28;20027;-72
2023/08/23 07:17:23;;;;;;;0.00;0.00;;;19.60;99.90;;;;;;5096742;28;20027;-72
2023/08/23 07:19:50;;;;;;;2.28;1.77;;;20.10;99.90;;;;;;5097100;28;20383;-72
2023/08/23 07:22:16;;;;;;;4.22;2.95;;;19.90;99.90;;;;;;5100389;28;20050;-75
2023/08/23 07:24:41;;;;;;;0.43;0.43;;;19.60;99.90;;;;;;5095015;28;20036;-73
2023/08/23 07:27:07;;;;;;;2.22;0.70;;;19.60;99.90;;;;;;5092560;28;20028;-72
2023/08/23 07:29:36;;;;;;;0.00;0.00;;;20.00;99.90;;;;;;5092037;28;20020;-73
2023/08/23 07:32:04;;;;;;;0.10;0.10;;;20.50;99.90;;;;;;5094027;28;20024;-72
2023/08/23 07:34:30;;;;;;;3.92;0.80;;;20.70;99.90;;;;;;5097343;28;20028;-72
2023/08/23 07:36:55;;;;;;;1.40;1.30;;;21.00;99.90;;;;;;5095574;28;20384;-72
2023/08/23 07:39:22;;;;;;;4.38;3.10;;;20.80;99.90;;;;;;5095384;28;20028;-73
2023/08/23 07:41:48;;;;;;;0.20;0.20;;;20.60;99.90;;;;;;5080068;28;20024;-72
2023/08/23 07:44:14;;;;;;;0.00;0.00;;;20.60;99.90;;;;;;5106481;28;20047;-72
2023/08/23 07:46:39;;;;;;;0.47;0.47;;;20.40;99.90;;;;;;5099470;28;20052;-72
2023/08/23 07:49:06;;;;;;;0.28;0.28;;;20.40;99.90;;;;;;5095869;28;20029;-72
2023/08/23 07:51:32;;;;;;;0.30;0.30;;;20.80;99.90;;;;;;5094559;28;20027;-72
2023/08/23 07:53:57;;;;;;;1.40;1.30;;;20.90;99.90;;;;;;5107935;28;20439;-72
2023/08/23 07:56:23;;;;;;;1.48;0.88;;;20.80;99.90;;;;;;5105149;28;20015;-72
2023/08/23 07:58:49;;;;;;;0.63;0.63;;;20.80;99.90;;;;;;5096713;28;20032;-73
2023/08/23 08:01:15;;;;;;;0.00;0.00;;;20.90;99.90;;;;;;5094819;28;20055;-72
2023/08/23 08:03:41;;;;;;;1.02;0.93;;;21.30;99.90;;;;;;5094341;28;20108;-73
2023/08/23 08:06:06;;;;;;;0.85;0.50;;;21.50;99.90;;;;;;5106969;28;20032;-73
2023/08/23 08:08:32;;;;;;;0.52;0.52;;;21.90;99.90;;;;;;5098371;28;20016;-72
2023/08/23 08:10:58;;;;;;;0.63;0.63;;;21.80;99.90;;;;;;5094742;28;20028;-72
2023/08/23 08:13:24;;;;;;;6.13;3.85;;;21.70;99.90;;;;;;5092197;28;20038;-73
2023/08/23 08:15:50;;;;;;;4.50;1.85;;;21.70;99.90;;;;;;5095172;28;20106;-72
2023/08/23 08:18:16;;;;;;;0.30;0.30;;;21.70;99.90;;;;;;5107310;28;20435;-73
2023/08/23 08:20:41;;;;;;;0.00;0.00;;;21.90;99.90;;;;;;5101776;28;20073;-73
2023/08/23 08:23:07;;;;;;;3.45;2.25;;;21.90;99.90;;;;;;5091696;28;20362;-72
2023/08/23 08:25:33;;;;;;;1.00;0.98;;;22.10;99.90;;;;;;5091808;28;20077;-72
2023/08/23 08:27:59;;;;;;;0.20;0.20;;;22.30;99.90;;;;;;5084854;28;20012;-73
2023/08/23 08:30:25;;;;;;;1.20;1.15;;;22.70;99.90;;;;;;5084829;28;20031;-72
2023/08/23 08:32:51;;;;;;;6.50;1.95;;;22.60;99.90;;;;;;5092148;28;20491;-74
2023/08/23 08:35:16;;;;;;;0.75;0.75;;;22.10;99.90;;;;;;5096798;28;20384;-71
2023/08/23 08:37:43;;;;;;;0.00;0.00;;;22.40;99.90;;;;;;5098668;28;20028;-73
2023/08/23 08:40:09;;;;;;;0.90;0.85;;;22.50;99.90;;;;;;5095055;28;20016;-72
2023/08/23 08:42:35;;;;;;;0.70;0.22;;;22.50;99.90;;;;;;5106003;28;20386;-74
2023/08/23 08:45:01;;;;;;;8.95;2.83;;;22.60;99.90;;;;;;5100006;28;20016;-74
2023/08/23 08:47:27;;;;;;;0.70;0.30;;;23.00;99.90;;;;;;5101877;28;20106;-74
2023/08/23 08:49:52;;;;;;;1.38;0.80;;;23.10;99.90;;;;;;5102609;28;20024;-74
2023/08/23 08:52:20;;;;;;;0.32;0.32;;;23.10;99.90;;;;;;5102891;28;20460;-73
2023/08/23 08:54:48;;;;;;;0.47;0.47;;;22.70;99.90;;;;;;5103789;28;20704;-74
2023/08/23 08:57:15;;;;;;;0.47;0.47;;;22.80;99.90;;;;;;5098584;28;20397;-75
2023/08/23 08:59:42;;;;;;;1.55;1.00;;;22.80;99.90;;;;;;5094323;28;20028;-74
2023/08/23 09:02:15;;;;;;;21.77;1.27;;;22.90;99.90;;;;;;5096404;28;20027;-74
2023/08/23 09:04:46;;;;;;;0.00;0.00;;;23.30;99.90;;;;;;5093435;28;20028;-74
2023/08/23 09:07:13;;;;;;;0.90;0.90;;;23.30;99.90;;;;;;5097812;28;20036;-74
2023/08/23 09:09:40;;;;;;;0.63;0.63;;;23.30;99.90;;;;;;5093675;28;20468;-74
2023/08/23 09:12:06;;;;;;;0.05;0.05;;;23.20;99.90;;;;;;5096988;28;20673;-75
2023/08/23 09:14:32;;;;;;;0.55;0.55;;;23.10;99.90;;;;;;5095175;28;20487;-73
2023/08/23 09:16:58;;;;;;;4.38;0.85;;;23.10;99.90;;;;;;5100292;28;20044;-74
2023/08/23 09:19:24;;;;;;;1.65;1.35;;;23.50;99.90;;;;;;5103119;28;20461;-76
2023/08/23 09:21:50;;;;;;;0.17;0.17;;;23.30;99.90;;;;;;5100891;28;20039;-74
2023/08/23 09:24:17;;;;;;;1.60;1.50;;;23.60;99.90;;;;;;5100993;28;20028;-74
2023/08/23 09:26:45;;;;;;;0.17;0.17;;;23.60;99.90;;;;;;5099722;28;20028;-75
2023/08/23 09:29:12;;;;;;;0.73;0.73;;;23.90;99.90;;;;;;5094170;28;20028;-75
2023/08/23 09:31:39;;;;;;;0.00;0.00;;;24.20;99.90;;;;;;5099778;28;20073;-75
2023/08/23 09:34:11;;;;;;;3.03;0.70;;;24.50;99.90;;;;;;5099244;28;20032;-74
2023/08/23 09:36:40;;;;;;;0.00;0.00;;;24.50;99.90;;;;;;5098306;28;20484;-74
2023/08/23 09:39:10;;;;;;;0.28;0.28;;;24.20;99.90;;;;;;5092171;28;20039;-75
2023/08/23 09:41:42;;;;;;;0.20;0.20;;;23.80;99.90;;;;;;5095487;28;20028;-74
2023/08/23 09:44:09;;;;;;;0.00;0.00;;;24.10;99.90;;;;;;5105470;28;20035;-77
2023/08/23 09:46:36;;;;;;;0.15;0.15;;;24.80;99.90;;;;;;5097828;28;20020;-74
2023/08/23 09:49:06;;;;;;;0.13;0.13;;;24.60;99.90;;;;;;5096618;28;20044;-74
2023/08/23 09:51:36;;;;;;;0.55;0.32;;;24.20;99.90;;;;;;5095239;28;20081;-74
2023/08/23 09:54:12;;;;;;;0.70;0.65;;;24.50;99.90;;;;;;5101775;28;20036;-74
2023/08/23 09:56:41;;;;;;;0.00;0.00;;;24.20;99.90;;;;;;5089300;28;20541;-74
2023/08/23 09:59:08;;;;;;;0.00;0.00;;;24.60;99.90;;;;;;5093188;28;20545;-74
2023/08/23 10:01:33;;;;;;;1.05;0.98;;;24.90;99.90;;;;;;5093205;28;20031;-74
2023/08/23 10:04:01;;;;;;;0.10;0.05;;;24.80;99.90;;;;;;5090873;28;20024;-74
2023/08/23 10:06:28;;;;;;;0.10;0.10;;;24.90;99.90;;;;;;5094587;28;20603;-74
2023/08/23 10:08:56;;;;;;;0.03;0.03;;;25.20;99.90;;;;;;5098071;28;20020;-75
2023/08/23 10:11:24;;;;;;;0.00;0.00;;;25.50;99.90;;;;;;5098605;28;20073;-74
2023/08/23 10:13:52;;;;;;;0.00;0.00;;;26.20;99.90;;;;;;5099980;28;20032;-75
2023/08/23 10:16:21;;;;;;;3.08;0.63;;;25.50;99.90;;;;;;5095427;28;20393;-75
2023/08/23 10:18:47;;;;;;;0.10;0.10;;;25.90;99.90;;;;;;5092976;28;20357;-74
2023/08/23 10:21:13;;;;;;;0.47;0.47;;;26.10;99.90;;;;;;5096815;28;20027;-74
2023/08/23 10:23:42;;;;;;;0.10;0.10;;;25.30;99.90;;;;;;5106967;28;20019;-74
2023/08/23 10:26:20;;;;;;;0.00;0.00;;;25.40;99.90;;;;;;5099116;28;20024;-74
2023/08/23 10:28:52;;;;;;;0.32;0.32;;;26.00;99.90;;;;;;5096676;28;20028;-74
2023/08/23 10:31:28;;;;;;;0.20;0.20;;;25.40;99.90;;;;;;5094715;28;20035;-75
2023/08/23 10:33:55;;;;;;;0.20;0.20;;;25.70;99.90;;;;;;5097571;28;20122;-76
2023/08/23 10:36:25;;;;;;;0.52;0.30;;;26.00;99.90;;;;;;5095891;28;20024;-75
2023/08/23 10:38:53;;;;;;;0.43;0.43;;;26.20;99.90;;;;;;5091885;28;20388;-74
2023/08/23 10:41:19;;;;;;;0.20;0.13;;;26.30;99.90;;;;;;5091230;28;20062;-75
2023/08/23 10:43:47;;;;;;;0.38;0.38;;;26.70;99.90;;;;;;5090417;28;20028;-74
2023/08/23 10:46:17;;;;;;;0.77;0.73;;;26.00;99.90;;;;;;5101118;28;20032;-75
2023/08/23 10:48:44;;;;;;;0.05;0.05;;;26.50;99.90;;;;;;5098492;28;20076;-74
2023/08/23 10:51:11;;;;;;;0.30;0.15;;;26.70;99.90;;;;;;5101787;28;20034;-74
2023/08/23 10:53:36;;;;;;;0.73;0.52;;;26.90;99.90;;;;;;5092626;28;20035;-74
2023/08/23 10:56:02;;;;;;;0.85;0.63;;;26.80;99.90;;;;;;5092928;28;20028;-75
2023/08/23 10:58:30;;;;;;;5.32;0.73;;;27.20;99.70;;;;;;5101324;28;20091;-74
2023/08/23 11:00:56;;;;;;;0.35;0.35;;;27.40;99.80;;;;;;5094365;28;20081;-74
2023/08/23 11:03:22;;;;;;;0.50;0.45;;;26.90;99.70;;;;;;5093746;28;20028;-74
2023/08/23 11:05:48;;;;;;;0.10;0.10;;;26.50;99.90;;;;;;5098269;28;20032;-75
2023/08/23 11:08:15;;;;;;;0.30;0.20;;;26.50;99.90;;;;;;5101056;28;20028;-74
2023/08/23 11:10:42;;;;;;;1.23;0.20;;;27.00;99.90;;;;;;5098143;28;20032;-74
2023/08/23 11:13:08;;;;;;;0.03;0.03;;;26.90;99.60;;;;;;5092774;28;20126;-75
2023/08/23 11:15:34;;;;;;;0.00;0.00;;;27.20;98.90;;;;;;5111959;28;20134;-75
2023/08/23 11:18:03;;;;;;;0.10;0.10;;;27.40;98.10;;;;;;5102699;28;20030;-75
2023/08/23 11:20:29;;;;;;;4.10;0.85;;;27.50;98.90;;;;;;5094562;28;20116;-75
2023/08/23 11:22:55;;;;;;;0.00;0.00;;;27.70;99.20;;;;;;5090713;28;20052;-75
2023/08/23 11:25:20;;;;;;;0.00;0.00;;;28.00;99.00;;;;;;5093516;28;20030;-74
2023/08/23 11:27:46;;;;;;;0.22;0.22;;;28.60;98.00;;;;;;5090769;28;20488;-74
2023/08/23 11:30:12;;;;;;;3.72;1.00;;;29.30;97.10;;;;;;5091316;28;20026;-75
2023/08/23 11:32:38;;;;;;;0.45;0.30;;;29.30;96.00;;;;;;5092197;28;20135;-74
2023/08/23 11:35:06;;;;;;;0.00;0.00;;;28.60;96.00;;;;;;5102846;28;20024;-75
2023/08/23 11:37:31;;;;;;;0.00;0.00;;;28.60;95.90;;;;;;5105434;28;20492;-74
2023/08/23 11:39:59;;;;;;;0.00;0.00;;;28.50;96.90;;;;;;5097333;28;20073;-75
2023/08/23 11:42:26;;;;;;;4.28;0.50;;;29.40;95.90;;;;;;5094297;28;20051;-75
2023/08/23 11:44:55;;;;;;;0.57;0.57;;;28.10;97.50;;;;;;5091590;28;20031;-75
2023/08/23 11:47:27;;;;;;;0.43;0.28;;;27.30;97.00;;;;;;5087365;28;20016;-75
2023/08/23 11:49:53;;;;;;;0.55;0.35;;;27.90;96.90;;;;;;5095103;28;20064;-75
2023/08/23 11:52:19;;;;;;;0.00;0.00;;;28.40;96.60;;;;;;5094641;28;20064;-75
2023/08/23 11:54:45;;;;;;;0.00;0.00;;;28.50;95.60;;;;;;5094953;28;20448;-76
2023/08/23 11:57:16;;;;;;;0.22;0.22;;;28.30;95.70;;;;;;5080150;28;20027;-76
2023/08/23 11:59:42;;;;;;;0.22;0.22;;;28.50;95.50;;;;;;5086836;28;20054;-79
2023/08/23 12:02:08;;;;;;;0.10;0.10;;;28.60;95.00;;;;;;5095225;28;20036;-76
2023/08/23 12:04:34;;;;;;;1.55;0.80;;;29.00;94.50;;;;;;5091094;28;20085;-77
2023/08/23 12:07:00;;;;;;;0.95;0.57;;;29.10;94.20;;;;;;5094518;28;20036;-76
2023/08/23 12:09:26;;;;;;;0.68;0.57;;;29.20;94.90;;;;;;5105502;28;20019;-77
2023/08/23 12:11:55;;;;;;;0.00;0.00;;;28.80;93.90;;;;;;5095672;28;20030;-75
2023/08/23 12:14:23;;;;;;;0.10;0.10;;;28.80;94.70;;;;;;5095557;28;20039;-75
2023/08/23 12:16:49;;;;;;;0.90;0.75;;;28.70;94.80;;;;;;5093306;28;20020;-76
2023/08/23 12:19:15;;;;;;;0.57;0.55;;;28.90;92.90;;;;;;5092536;28;20024;-76
2023/08/23 12:21:41;;;;;;;1.38;1.08;;;29.20;93.20;;;;;;5103647;28;20027;-78
2023/08/23 12:24:07;;;;;;;0.10;0.10;;;28.80;92.40;;;;;;5112527;28;20092;-77
2023/08/23 12:26:33;;;;;;;1.90;1.40;;;29.60;93.60;;;;;;5105789;28;20089;-78
2023/08/23 12:28:59;;;;;;;0.22;0.22;;;30.20;92.40;;;;;;5108010;28;20034;-79
2023/08/23 12:31:25;;;;;;;0.10;0.10;;;29.70;93.00;;;;;;5115185;28;20016;-81
2023/08/23 12:33:51;;;;;;;0.57;0.30;;;29.60;92.00;;;;;;5114613;28;20035;-75
2023/08/23 12:36:17;;;;;;;2.78;1.40;;;30.20;92.00;;;;;;5102085;28;20035;-79
2023/08/23 12:38:43;;;;;;;0.55;0.55;;;29.80;91.50;;;;;;5112224;28;20042;-82
2023/08/23 12:41:09;;;;;;;0.80;0.70;;;29.90;90.90;;;;;;5114752;28;20138;-78
2023/08/23 12:43:35;;;;;;;0.80;0.55;;;29.50;91.00;;;;;;5115068;28;20497;-82
2023/08/23 12:46:01;;;;;;;0.00;0.00;;;29.40;91.40;;;;;;5114706;28;20099;-75